createdAt,value
2023-04-18T00:00:43.306Z,96136.91
2023-04-18T00:01:45.790Z,96136.91
2023-04-18T00:02:47.549Z,96133.50
2023-04-18T00:03:52.278Z,96135.50
2023-04-18T00:04:54.572Z,96136.09
2023-04-18T00:05:56.446Z,96129.53
2023-04-18T00:06:58.176Z,96131.47
2023-04-18T00:07:59.794Z,96128.75
2023-04-18T00:09:01.886Z,96128.16
2023-04-18T00:10:05.388Z,96122.19
2023-04-18T00:11:07.086Z,96131.66
2023-04-18T00:12:36.559Z,96127.47
2023-04-18T00:13:41.074Z,96121.59
2023-04-18T00:14:43.778Z,96119.97
2023-04-18T00:15:46.327Z,96122.50
2023-04-18T00:16:47.995Z,96119.78
2023-04-18T00:17:49.792Z,96115.56
2023-04-18T00:18:52.052Z,96120.19
2023-04-18T00:19:56.355Z,96118.47
2023-04-18T00:20:58.020Z,96118.19
2023-04-18T00:21:59.919Z,96117.03
2023-04-18T00:23:01.898Z,96116.06
2023-04-18T00:24:03.605Z,96123.41
2023-04-18T00:25:05.619Z,96125.53
2023-04-18T00:26:07.239Z,96126.53
2023-04-18T00:27:08.941Z,96123.41
2023-04-18T00:28:10.623Z,96123.41
2023-04-18T00:29:12.261Z,96128.56
2023-04-18T00:30:14.267Z,96121.88
2023-04-18T00:31:16.086Z,96119.47
2023-04-18T00:32:18.024Z,96123.13
2023-04-18T00:33:19.826Z,96127.47
2023-04-18T00:34:21.732Z,96121.00
2023-04-18T00:35:23.641Z,96121.59
2023-04-18T00:36:25.364Z,96119.69
2023-04-18T00:37:27.306Z,96125.13
2023-04-18T00:38:29.001Z,96128.66
2023-04-18T00:39:30.643Z,96125.34
2023-04-18T00:40:32.517Z,96126.53
2023-04-18T00:41:35.166Z,96122.00
2023-04-18T00:42:36.837Z,96121.00
2023-04-18T00:43:38.598Z,96121.09
2023-04-18T00:44:40.978Z,96119.16
2023-04-18T00:45:42.923Z,96119.59
2023-04-18T00:46:45.550Z,96117.47
2023-04-18T00:47:47.286Z,96115.03
2023-04-18T00:48:49.396Z,96115.56
2023-04-18T00:49:51.385Z,96127.03
2023-04-18T00:50:53.751Z,96128.47
2023-04-18T00:51:56.888Z,96124.63
2023-04-18T00:52:58.585Z,96116.47
2023-04-18T00:54:00.568Z,96122.22
2023-04-18T00:55:04.848Z,96118.19
2023-04-18T00:56:07.473Z,96118.78
2023-04-18T00:57:09.355Z,96116.84
2023-04-18T00:58:11.573Z,96114.94
2023-04-18T00:59:13.722Z,96120.47
2023-04-18T01:00:15.536Z,96117.88
2023-04-18T01:01:18.126Z,96115.56
2023-04-18T01:02:19.982Z,96117.66
2023-04-18T01:03:22.841Z,96111.94
2023-04-18T01:04:24.793Z,96109.81
2023-04-18T01:05:26.868Z,96111.75
2023-04-18T01:06:29.208Z,96114.25
2023-04-18T01:07:33.383Z,96111.13
2023-04-18T01:08:35.484Z,96110.00
2023-04-18T01:09:37.382Z,96106.31
2023-04-18T01:10:38.918Z,96107.72
2023-04-18T01:11:40.491Z,96107.28
2023-04-18T01:15:44.946Z,96098.84
2023-04-18T01:16:48.437Z,96102.44
2023-04-18T01:17:52.236Z,96093.81
2023-04-18T01:18:55.434Z,96089.56
2023-04-18T01:19:57.891Z,96090.75
2023-04-18T01:21:01.842Z,96093.59
2023-04-18T01:22:03.816Z,96094.91
2023-04-18T01:23:05.796Z,96099.84
2023-04-18T01:24:14.922Z,96093.19
2023-04-18T01:25:19.018Z,96097.63
2023-04-18T01:26:20.869Z,96093.59
2023-04-18T01:27:23.098Z,96098.75
2023-04-18T01:28:27.511Z,96095.91
2023-04-18T01:29:30.784Z,96097.72
2023-04-18T01:30:33.466Z,96098.22
2023-04-18T01:31:36.390Z,96098.53
2023-04-18T01:32:37.995Z,96099.63
2023-04-18T01:33:39.674Z,96094.00
2023-04-18T01:34:41.393Z,96098.94
2023-04-18T01:35:43.018Z,96109.69
2023-04-18T01:36:45.574Z,96101.44
2023-04-18T01:37:47.148Z,96099.06
2023-04-18T01:38:48.772Z,96099.06
2023-04-18T01:39:50.466Z,96097.09
2023-04-18T01:40:53.858Z,96101.44
2023-04-18T01:41:56.952Z,96102.06
2023-04-18T01:42:58.576Z,96092.28
2023-04-18T01:44:00.544Z,96103.47
2023-04-18T01:45:02.324Z,96105.28
2023-04-18T01:46:03.956Z,96098.03
2023-04-18T01:47:05.863Z,96095.00
2023-04-18T01:48:07.722Z,96101.25
2023-04-18T01:49:09.857Z,96106.69
2023-04-18T01:50:11.677Z,96101.25
2023-04-18T01:51:13.967Z,96092.38
2023-04-18T01:52:17.047Z,96095.91
2023-04-18T01:53:18.561Z,96097.63
2023-04-18T01:54:20.193Z,96098.22
2023-04-18T01:55:21.800Z,96096.41
2023-04-18T01:56:23.433Z,96095.00
2023-04-18T01:57:25.070Z,96096.72
2023-04-18T01:58:26.872Z,96093.19
2023-04-18T01:59:28.414Z,96089.19
2023-04-18T02:00:30.045Z,96099.72
2023-04-18T02:01:31.664Z,96096.00
2023-04-18T02:02:34.061Z,96090.06
2023-04-18T02:03:35.986Z,96093.59
2023-04-18T02:04:37.835Z,96084.03
2023-04-18T02:05:39.389Z,96091.28
2023-04-18T02:06:43.005Z,96087.56
2023-04-18T02:07:45.535Z,96091.38
2023-04-18T02:08:47.109Z,96088.16
2023-04-18T02:09:48.689Z,96094.50
2023-04-18T02:10:50.463Z,96095.28
2023-04-18T02:11:52.010Z,96106.50
2023-04-18T02:12:53.625Z,96096.50
2023-04-18T02:13:55.244Z,96100.72
2023-04-18T02:14:56.858Z,96092.97
2023-04-18T02:15:58.567Z,96091.34
2023-04-18T02:17:00.184Z,96096.50
2023-04-18T02:18:01.870Z,96099.22
2023-04-18T02:19:04.377Z,96094.06
2023-04-18T02:20:08.059Z,96101.75
2023-04-18T02:21:11.165Z,96100.44
2023-04-18T02:22:12.756Z,96094.69
2023-04-18T02:23:14.303Z,96100.31
2023-04-18T02:24:16.182Z,96096.81
2023-04-18T02:25:18.538Z,96100.44
2023-04-18T02:26:22.952Z,96096.31
2023-04-18T02:27:24.567Z,96098.22
2023-04-18T02:28:26.105Z,96100.94
2023-04-18T02:29:27.915Z,96106.69
2023-04-18T02:30:29.469Z,96098.53
2023-04-18T02:31:32.253Z,96099.91
2023-04-18T02:32:33.905Z,96100.22
2023-04-18T02:33:35.642Z,96103.84
2023-04-18T02:34:37.553Z,96096.88
2023-04-18T02:35:40.637Z,96101.50
2023-04-18T02:36:43.794Z,96108.25
2023-04-18T02:37:45.428Z,96099.81
2023-04-18T02:38:47.456Z,96102.31
2023-04-18T02:39:49.139Z,96097.19
2023-04-18T02:40:50.979Z,96106.13
2023-04-18T02:41:52.639Z,96107.75
2023-04-18T02:42:58.161Z,96103.72
2023-04-18T02:43:59.821Z,96111.06
2023-04-18T02:45:01.398Z,96104.28
2023-04-18T02:46:03.016Z,96108.09
2023-04-18T02:47:04.622Z,96109.50
2023-04-18T02:48:06.281Z,96109.22
2023-04-18T02:49:09.557Z,96106.50
2023-04-18T02:50:11.497Z,96105.50
2023-04-18T02:51:13.322Z,96101.44
2023-04-18T02:52:15.058Z,96105.50
2023-04-18T02:53:17.223Z,96112.84
2023-04-18T02:54:26.398Z,96108.22
2023-04-18T02:55:33.819Z,96098.72
2023-04-18T02:56:39.854Z,96106.28
2023-04-18T02:57:55.915Z,96098.44
2023-04-18T02:59:07.136Z,96095.22
2023-04-18T03:00:22.945Z,96101.34
2023-04-18T03:01:44.656Z,96102.97
2023-04-18T03:02:49.204Z,96096.97
2023-04-18T03:04:01.640Z,96101.34
2023-04-18T03:05:13.589Z,96094.91
2023-04-18T03:06:15.175Z,96096.31
2023-04-18T03:07:16.881Z,96098.22
2023-04-18T03:08:18.671Z,96090.59
2023-04-18T03:09:20.584Z,96094.81
2023-04-18T03:10:28.843Z,96091.28
2023-04-18T03:11:30.776Z,96096.53
2023-04-18T03:12:32.617Z,96094.91
2023-04-18T03:13:35.180Z,96099.25
2023-04-18T03:14:37.910Z,96098.63
2023-04-18T03:15:40.477Z,96097.63
2023-04-18T03:16:43.232Z,96099.25
2023-04-18T03:17:47.957Z,96095.72
2023-04-18T03:18:50.760Z,96098.44
2023-04-18T03:19:52.900Z,96098.50
2023-04-18T03:20:55.269Z,96095.31
2023-04-18T03:21:56.870Z,96092.88
2023-04-18T03:22:58.442Z,96099.13
2023-04-18T03:24:03.800Z,96097.69
2023-04-18T03:25:07.582Z,96095.59
2023-04-18T03:26:16.835Z,96095.50
2023-04-18T03:27:19.616Z,96086.34
2023-04-18T03:28:22.033Z,96097.28
2023-04-18T03:29:24.630Z,96095.59
2023-04-18T03:30:26.593Z,96094.97
2023-04-18T03:31:29.902Z,96089.06
2023-04-18T03:32:34.008Z,96094.56
2023-04-18T03:33:36.147Z,96088.94
2023-04-18T03:34:43.386Z,96085.09
2023-04-18T03:35:45.624Z,96088.03
2023-04-18T03:36:48.213Z,96088.25
2023-04-18T03:37:51.198Z,96099.13
2023-04-18T03:39:01.191Z,96085.84
2023-04-18T03:40:03.814Z,96079.78
2023-04-18T03:41:05.531Z,96077.75
2023-04-18T03:42:09.646Z,96087.22
2023-04-18T03:43:11.325Z,96090.16
2023-04-18T03:44:13.244Z,96089.88
2023-04-18T03:45:16.739Z,96090.16
2023-04-18T03:46:22.037Z,96080.69
2023-04-18T03:47:26.442Z,96076.38
2023-04-18T03:48:35.722Z,96086.00
2023-04-18T03:49:40.497Z,96078.66
2023-04-18T03:50:43.037Z,96084.91
2023-04-18T03:51:47.893Z,96079.47
2023-04-18T03:52:49.627Z,96085.19
2023-04-18T03:53:52.630Z,96073.31
2023-04-18T03:54:54.230Z,96089.81
2023-04-18T03:55:59.805Z,96088.13
2023-04-18T03:57:15.632Z,96087.81
2023-04-18T03:58:18.036Z,96090.41
2023-04-18T03:59:20.290Z,96087.09
2023-04-18T04:00:25.560Z,96089.81
2023-04-18T04:01:34.356Z,96089.81
2023-04-18T04:02:37.024Z,96095.25
2023-04-18T04:03:38.871Z,96097.47
2023-04-18T04:04:41.082Z,96095.03
2023-04-18T04:05:44.988Z,96095.84
2023-04-18T04:06:47.544Z,96095.84
2023-04-18T04:07:51.081Z,96098.06
2023-04-18T04:08:53.289Z,96098.66
2023-04-18T04:09:58.786Z,96092.69
2023-04-18T04:11:00.461Z,96094.03
2023-04-18T04:12:03.052Z,96094.31
2023-04-18T04:13:05.010Z,96094.53
2023-04-18T04:14:09.202Z,96094.22
2023-04-18T04:15:15.224Z,96095.66
2023-04-18T04:16:23.591Z,96094.53
2023-04-18T04:17:27.082Z,96094.31
2023-04-18T04:18:31.761Z,96096.44
2023-04-18T04:19:35.678Z,96094.03
2023-04-18T04:20:46.911Z,96096.75
2023-04-18T04:21:56.706Z,96093.75
2023-04-18T04:23:00.078Z,96092.00
2023-04-18T04:24:02.418Z,96105.56
2023-04-18T04:25:10.420Z,96099.22
2023-04-18T04:26:17.180Z,96109.09
2023-04-18T04:27:26.968Z,96105.84
2023-04-18T04:28:28.769Z,96098.53
2023-04-18T04:29:36.105Z,96111.88
2023-04-18T04:30:38.269Z,96105.06
2023-04-18T04:31:39.995Z,96103.94
2023-04-18T04:32:41.737Z,96107.75
2023-04-18T04:33:43.678Z,96104.75
2023-04-18T04:34:51.097Z,96106.44
2023-04-18T04:35:53.516Z,96094.47
2023-04-18T04:36:55.306Z,96099.91
2023-04-18T04:37:58.927Z,96098.53
2023-04-18T04:39:08.589Z,96102.63
2023-04-18T04:40:27.674Z,96102.34
2023-04-18T04:41:49.733Z,96095.06
2023-04-18T04:42:54.226Z,96097.78
2023-04-18T04:44:05.056Z,96100.50
2023-04-18T04:45:09.463Z,96099.41
2023-04-18T04:46:13.674Z,96101.25
2023-04-18T04:47:17.612Z,96107.25
2023-04-18T04:48:20.295Z,96102.03
2023-04-18T04:49:22.120Z,96104.25
2023-04-18T04:50:23.777Z,96104.25
2023-04-18T04:51:25.828Z,96099.03
2023-04-18T04:52:27.703Z,96101.94
2023-04-18T04:53:32.656Z,96099.03
2023-04-18T04:54:36.301Z,96095.22
2023-04-18T04:55:40.489Z,96104.66
2023-04-18T04:56:42.543Z,96097.84
2023-04-18T04:57:45.021Z,96099.66
2023-04-18T04:59:09.159Z,96111.72
2023-04-18T05:00:21.078Z,96109.50
2023-04-18T05:01:23.586Z,96105.09
2023-04-18T05:02:25.544Z,96110.53
2023-04-18T05:03:27.797Z,96104.31
2023-04-18T05:04:29.747Z,96103.50
2023-04-18T05:05:31.452Z,96110.63
2023-04-18T05:06:33.111Z,96107.31
2023-04-18T05:07:34.771Z,96099.22
2023-04-18T05:08:36.442Z,96115.75
2023-04-18T05:09:38.153Z,96116.72
2023-04-18T05:10:39.833Z,96107.47
2023-04-18T05:11:41.420Z,96110.91
2023-04-18T05:12:43.080Z,96109.50
2023-04-18T05:13:44.748Z,96111.56
2023-04-18T05:14:46.334Z,96102.75
2023-04-18T05:15:47.997Z,96115.38
2023-04-18T05:16:49.698Z,96112.22
2023-04-18T05:17:51.437Z,96115.47
2023-04-18T05:18:53.088Z,96115.75
2023-04-18T05:19:54.665Z,96114.66
2023-04-18T05:20:56.833Z,96118.38
2023-04-18T05:21:58.463Z,96118.66
2023-04-18T05:23:00.283Z,96117.44
2023-04-18T05:24:02.073Z,96123.38
2023-04-18T05:25:04.071Z,96119.06
2023-04-18T05:26:06.240Z,96126.38
2023-04-18T05:27:08.015Z,96119.06
2023-04-18T05:28:09.643Z,96126.91
2023-04-18T05:29:11.304Z,96125.72
2023-04-18T05:30:13.024Z,96122.81
2023-04-18T05:31:14.697Z,96119.78
2023-04-18T05:32:16.647Z,96126.03
2023-04-18T05:33:18.264Z,96129.25
2023-04-18T05:34:19.839Z,96119.78
2023-04-18T05:35:21.454Z,96137.31
2023-04-18T05:36:23.122Z,96125.72
2023-04-18T05:37:25.266Z,96129.47
2023-04-18T05:38:26.915Z,96126.81
2023-04-18T05:39:28.540Z,96120.41
2023-04-18T05:40:30.295Z,96122.72
2023-04-18T05:41:31.974Z,96129.25
2023-04-18T05:42:33.609Z,96128.13
2023-04-18T05:43:35.298Z,96121.22
2023-04-18T05:44:36.991Z,96125.66
2023-04-18T05:45:38.825Z,96132.09
2023-04-18T05:46:40.487Z,96126.66
2023-04-18T05:47:42.231Z,96129.06
2023-04-18T05:48:43.963Z,96134.31
2023-04-18T05:49:45.554Z,96136.28
2023-04-18T05:50:47.385Z,96136.91
2023-04-18T05:51:49.872Z,96138.06
2023-04-18T05:52:52.069Z,96142.41
2023-04-18T05:53:53.674Z,96134.59
2023-04-18T05:54:55.509Z,96143.84
2023-04-18T05:55:58.979Z,96142.00
2023-04-18T05:57:02.560Z,96128.88
2023-04-18T05:58:05.604Z,96137.75
2023-04-18T05:59:07.212Z,96141.78
2023-04-18T06:00:11.983Z,96138.03
2023-04-18T06:01:18.783Z,96137.97
2023-04-18T06:02:21.102Z,96131.91
2023-04-18T06:03:22.984Z,96135.66
2023-04-18T06:04:24.978Z,96141.69
2023-04-18T06:05:26.952Z,96129.50
2023-04-18T06:06:28.877Z,96135.38
2023-04-18T06:07:30.713Z,96143.69
2023-04-18T06:08:32.316Z,96137.78
2023-04-18T06:09:34.320Z,96147.50
2023-04-18T06:10:37.711Z,96142.34
2023-04-18T06:11:40.691Z,96140.06
2023-04-18T06:12:42.760Z,96145.22
2023-04-18T06:13:44.448Z,96139.50
2023-04-18T06:14:46.105Z,96141.69
2023-04-18T06:15:47.772Z,96141.69
2023-04-18T06:16:49.868Z,96148.50
2023-04-18T06:17:51.623Z,96150.47
2023-04-18T06:18:53.362Z,96145.31
2023-04-18T06:19:54.974Z,96143.16
2023-04-18T06:20:56.604Z,96157.94
2023-04-18T06:21:58.224Z,96151.34
2023-04-18T06:22:59.843Z,96160.00
2023-04-18T06:24:01.700Z,96151.31
2023-04-18T06:25:03.615Z,96156.16
2023-04-18T06:26:06.192Z,96159.81
2023-04-18T06:27:14.946Z,96161.72
2023-04-18T06:28:22.384Z,96156.72
2023-04-18T06:29:24.562Z,96155.00
2023-04-18T06:30:26.283Z,96147.66
2023-04-18T06:31:27.993Z,96157.63
2023-04-18T06:32:29.758Z,96157.53
2023-04-18T06:33:31.486Z,96156.59
2023-04-18T06:34:33.241Z,96151.34
2023-04-18T06:35:35.031Z,96155.09
2023-04-18T06:36:36.688Z,96163.16
2023-04-18T06:37:38.437Z,96160.13
2023-04-18T06:38:40.057Z,96162.25
2023-04-18T06:39:41.635Z,96161.22
2023-04-18T06:40:43.252Z,96155.22
2023-04-18T06:41:44.911Z,96165.50
2023-04-18T06:42:50.433Z,96161.06
2023-04-18T06:45:01.102Z,96156.53
2023-04-18T06:46:04.939Z,96160.75
2023-04-18T06:47:06.576Z,96155.66
2023-04-18T06:48:09.146Z,96161.28
2023-04-18T06:49:11.009Z,96157.97
2023-04-18T06:50:12.623Z,96163.41
2023-04-18T06:51:14.316Z,96164.63
2023-04-18T06:52:15.983Z,96165.50
2023-04-18T06:53:17.942Z,96159.06
2023-04-18T06:54:19.609Z,96170.06
2023-04-18T06:55:21.565Z,96173.06
2023-04-18T06:56:23.244Z,96169.06
2023-04-18T06:57:25.855Z,96172.16
2023-04-18T06:58:27.572Z,96171.47
2023-04-18T06:59:29.222Z,96164.81
2023-04-18T07:00:30.904Z,96170.16
2023-04-18T07:01:35.489Z,96168.56
2023-04-18T07:02:38.557Z,96169.78
2023-04-18T07:03:40.397Z,96166.94
2023-04-18T07:04:42.147Z,96164.13
2023-04-18T07:05:43.862Z,96172.28
2023-04-18T07:06:45.546Z,96165.13
2023-04-18T07:07:47.252Z,96166.72
2023-04-18T07:08:48.881Z,96166.50
2023-04-18T07:09:50.528Z,96163.72
2023-04-18T07:10:52.209Z,96168.03
2023-04-18T07:11:53.853Z,96165.31
2023-04-18T07:12:55.552Z,96176.25
2023-04-18T07:13:57.251Z,96176.59
2023-04-18T07:14:58.966Z,96175.97
2023-04-18T07:16:01.602Z,96172.88
2023-04-18T07:17:03.426Z,96175.19
2023-04-18T07:18:05.244Z,96172.09
2023-04-18T07:19:06.964Z,96177.91
2023-04-18T07:20:09.168Z,96172.66
2023-04-18T07:21:10.986Z,96175.00
2023-04-18T07:22:12.613Z,96171.06
2023-04-18T07:23:14.190Z,96174.06
2023-04-18T07:24:16.152Z,96178.09
2023-04-18T07:25:18.059Z,96177.09
2023-04-18T07:26:19.733Z,96178.31
2023-04-18T07:27:21.458Z,96176.56
2023-04-18T07:28:23.132Z,96172.22
2023-04-18T07:29:24.788Z,96175.34
2023-04-18T07:30:26.486Z,96177.44
2023-04-18T07:31:28.705Z,96165.59
2023-04-18T07:32:30.741Z,96174.44
2023-04-18T07:33:33.923Z,96173.34
2023-04-18T07:34:36.709Z,96172.56
2023-04-18T07:35:40.419Z,96168.78
2023-04-18T07:36:42.397Z,96171.13
2023-04-18T07:37:44.487Z,96172.81
2023-04-18T07:38:46.722Z,96175.47
2023-04-18T07:39:48.498Z,96178.00
2023-04-18T07:40:57.910Z,96176.59
2023-04-18T07:41:59.526Z,96184.25
2023-04-18T07:43:01.271Z,96173.63
2023-04-18T07:44:03.110Z,96167.31
2023-04-18T07:45:05.409Z,96173.47
2023-04-18T07:46:07.305Z,96182.59
2023-04-18T07:47:10.342Z,96177.72
2023-04-18T07:48:12.221Z,96171.97
2023-04-18T07:49:14.153Z,96171.34
2023-04-18T07:50:16.047Z,96178.94
2023-04-18T07:51:17.797Z,96174.56
2023-04-18T07:52:19.476Z,96172.44
2023-04-18T07:53:21.251Z,96171.28
2023-04-18T07:54:22.903Z,96165.88
2023-04-18T07:55:24.556Z,96162.16
2023-04-18T07:56:27.145Z,96162.81
2023-04-18T07:57:28.768Z,96167.97
2023-04-18T07:58:30.426Z,96170.22
2023-04-18T07:59:32.249Z,96171.28
2023-04-18T08:00:37.033Z,96169.03
2023-04-18T08:01:38.740Z,96172.88
2023-04-18T08:02:40.626Z,96172.59
2023-04-18T08:03:42.548Z,96171.47
2023-04-18T08:04:44.403Z,96170.50
2023-04-18T08:05:46.136Z,96177.28
2023-04-18T08:06:47.789Z,96181.16
2023-04-18T08:07:49.406Z,96176.00
2023-04-18T08:08:51.174Z,96173.28
2023-04-18T08:09:52.828Z,96177.81
2023-04-18T08:10:54.498Z,96177.00
2023-04-18T08:11:56.862Z,96173.13
2023-04-18T08:12:58.507Z,96170.72
2023-04-18T08:14:00.427Z,96182.13
2023-04-18T08:15:02.411Z,96172.81
2023-04-18T08:16:04.130Z,96177.91
2023-04-18T08:17:05.807Z,96170.88
2023-04-18T08:18:07.479Z,96175.59
2023-04-18T08:19:09.212Z,96178.13
2023-04-18T08:20:12.951Z,96173.56
2023-04-18T08:21:14.589Z,96163.19
2023-04-18T08:22:16.188Z,96170.50
2023-04-18T08:23:17.750Z,96171.06
2023-04-18T08:24:19.426Z,96161.19
2023-04-18T08:25:21.061Z,96165.59
2023-04-18T08:26:22.755Z,96169.47
2023-04-18T08:27:24.371Z,96170.19
2023-04-18T08:28:26.074Z,96171.44
2023-04-18T08:29:27.839Z,96158.69
2023-04-18T08:30:30.065Z,96173.00
2023-04-18T08:31:31.846Z,96167.63
2023-04-18T08:32:33.801Z,96156.34
2023-04-18T08:33:35.664Z,96165.03
2023-04-18T08:34:38.143Z,96156.38
2023-04-18T08:35:39.817Z,96162.19
2023-04-18T08:36:41.460Z,96173.41
2023-04-18T08:37:43.494Z,96174.31
2023-04-18T08:38:45.660Z,96175.94
2023-04-18T08:39:47.343Z,96169.53
2023-04-18T08:40:48.987Z,96163.75
2023-04-18T08:41:56.880Z,96161.06
2023-04-18T08:43:00.423Z,96163.59
2023-04-18T08:44:02.284Z,96173.47
2023-04-18T08:45:05.650Z,96182.13
2023-04-18T08:46:08.033Z,96164.38
2023-04-18T08:47:09.987Z,96160.69
2023-04-18T08:48:14.177Z,96177.47
2023-04-18T08:49:16.227Z,96165.69
2023-04-18T08:50:18.461Z,96168.66
2023-04-18T08:51:20.103Z,96172.81
2023-04-18T08:52:23.223Z,96168.94
2023-04-18T08:53:26.676Z,96189.41
2023-04-18T08:54:30.507Z,96173.94
2023-04-18T08:55:33.696Z,96176.13
2023-04-18T08:56:37.525Z,96185.50
2023-04-18T08:57:39.820Z,96184.63
2023-04-18T08:58:41.480Z,96177.34
2023-04-18T08:59:47.128Z,96183.88
2023-04-18T09:00:54.013Z,96187.84
2023-04-18T09:01:57.554Z,96187.28
2023-04-18T09:02:59.540Z,96197.59
2023-04-18T09:04:01.276Z,96190.19
2023-04-18T09:05:16.599Z,96190.66
2023-04-18T09:06:20.822Z,96191.78
2023-04-18T09:07:29.278Z,96200.97
2023-04-18T09:08:30.949Z,96200.00
2023-04-18T09:09:53.980Z,96196.31
2023-04-18T09:10:56.252Z,96190.03
2023-04-18T09:12:08.784Z,96197.44
2023-04-18T09:13:11.214Z,96191.06
2023-04-18T09:14:24.579Z,96198.81
2023-04-18T09:15:27.395Z,96199.94
2023-04-18T09:16:45.213Z,96191.94
2023-04-18T09:17:50.963Z,96195.78
2023-04-18T09:19:12.201Z,96199.50
2023-04-18T09:20:15.773Z,96208.69
2023-04-18T09:21:21.322Z,96195.19
2023-04-18T09:22:22.926Z,96202.72
2023-04-18T09:23:26.100Z,96197.25
2023-04-18T09:24:28.952Z,96197.59
2023-04-18T09:25:39.078Z,96195.16
2023-04-18T09:26:43.200Z,96198.25
2023-04-18T09:27:44.843Z,96198.69
2023-04-18T09:28:53.844Z,96193.56
2023-04-18T09:29:57.762Z,96194.06
2023-04-18T09:31:15.432Z,96192.44
2023-04-18T09:32:29.246Z,96193.59
2023-04-18T09:33:34.583Z,96192.28
2023-04-18T09:34:42.402Z,96220.75
2023-04-18T09:35:44.199Z,96197.91
2023-04-18T09:36:45.948Z,96199.38
2023-04-18T09:37:51.131Z,96200.16
2023-04-18T09:38:56.300Z,96190.16
2023-04-18T09:39:58.486Z,96200.50
2023-04-18T09:41:10.593Z,96203.53
2023-04-18T09:42:12.814Z,96199.19
2023-04-18T09:43:19.350Z,96199.50
2023-04-18T09:44:21.335Z,96203.69
2023-04-18T09:45:24.017Z,96191.47
2023-04-18T09:46:27.303Z,96196.63
2023-04-18T09:47:29.349Z,96195.50
2023-04-18T09:48:31.459Z,96203.84
2023-04-18T09:49:33.220Z,96204.66
2023-04-18T09:50:35.861Z,96198.69
2023-04-18T09:51:38.503Z,96202.91
2023-04-18T09:52:41.669Z,96208.06
2023-04-18T09:53:44.904Z,96205.97
2023-04-18T09:54:48.810Z,96210.63
2023-04-18T09:55:55.555Z,96200.31
2023-04-18T09:56:59.667Z,96206.44
2023-04-18T09:58:04.168Z,96212.69
2023-04-18T09:59:09.611Z,96209.13
2023-04-18T10:00:17.679Z,96204.34
2023-04-18T10:01:19.544Z,96207.38
2023-04-18T10:02:23.012Z,96211.13
2023-04-18T10:03:28.958Z,96201.94
2023-04-18T10:04:31.293Z,96199.69
2023-04-18T10:05:34.755Z,96202.25
2023-04-18T10:06:39.765Z,96207.56
2023-04-18T10:07:47.658Z,96207.88
2023-04-18T10:08:50.729Z,96204.97
2023-04-18T10:09:52.559Z,96205.16
2023-04-18T10:10:55.971Z,96205.47
2023-04-18T10:11:58.556Z,96211.25
2023-04-18T10:13:02.126Z,96210.31
2023-04-18T10:14:07.154Z,96213.34
2023-04-18T10:15:10.230Z,96203.84
2023-04-18T10:16:12.759Z,96211.25
2023-04-18T10:17:14.437Z,96212.06
2023-04-18T10:18:19.086Z,96210.00
2023-04-18T10:19:29.566Z,96205.63
2023-04-18T10:20:32.683Z,96209.00
2023-04-18T10:21:34.349Z,96209.50
2023-04-18T10:22:36.612Z,96208.69
2023-04-18T10:23:39.497Z,96212.69
2023-04-18T10:24:53.794Z,96208.06
2023-04-18T10:25:55.713Z,96208.69
2023-04-18T10:26:58.054Z,96210.81
2023-04-18T10:28:03.024Z,96206.72
2023-04-18T10:29:04.849Z,96205.88
2023-04-18T10:30:08.970Z,96211.88
2023-04-18T10:31:11.667Z,96207.88
2023-04-18T10:32:13.224Z,96199.97
2023-04-18T10:33:33.491Z,96194.34
2023-04-18T10:34:37.803Z,96208.78
2023-04-18T10:36:16.877Z,96207.22
2023-04-18T10:37:19.046Z,96203.06
2023-04-18T10:38:23.514Z,96206.44
2023-04-18T10:39:26.033Z,96199.34
2023-04-18T10:40:34.129Z,96205.34
2023-04-18T10:41:49.485Z,96195.34
2023-04-18T10:42:52.094Z,96201.59
2023-04-18T10:44:08.260Z,96207.25
2023-04-18T10:45:21.003Z,96201.59
2023-04-18T10:46:31.850Z,96202.59
2023-04-18T10:47:34.451Z,96209.19
2023-04-18T10:48:39.128Z,96196.63
2023-04-18T10:49:53.494Z,96205.94
2023-04-18T10:51:15.093Z,96208.66
2023-04-18T10:52:16.924Z,96197.88
2023-04-18T10:53:18.536Z,96197.88
2023-04-18T10:54:21.840Z,96201.88
2023-04-18T10:55:27.385Z,96196.84
2023-04-18T10:56:29.122Z,96199.78
2023-04-18T10:57:44.926Z,96200.22
2023-04-18T10:58:50.918Z,96197.63
2023-04-18T10:59:52.926Z,96200.31
2023-04-18T11:00:55.085Z,96200.00
2023-04-18T11:02:17.891Z,96198.88
2023-04-18T11:03:19.583Z,96190.31
2023-04-18T11:04:21.441Z,96190.44
2023-04-18T11:05:28.247Z,96193.44
2023-04-18T11:06:31.261Z,96184.91
2023-04-18T11:07:38.001Z,96189.94
2023-04-18T11:08:39.577Z,96187.09
2023-04-18T11:09:41.217Z,96185.97
2023-04-18T11:10:43.557Z,96182.69
2023-04-18T11:11:45.305Z,96184.69
2023-04-18T11:12:47.234Z,96190.19
2023-04-18T11:14:00.257Z,96182.69
2023-04-18T11:15:04.611Z,96188.84
2023-04-18T11:16:06.646Z,96190.75
2023-04-18T11:17:28.512Z,96173.91
2023-04-18T11:18:41.168Z,96177.69
2023-04-18T11:19:43.283Z,96173.38
2023-04-18T11:20:49.882Z,96176.88
2023-04-18T11:21:51.811Z,96183.78
2023-04-18T11:22:54.662Z,96176.34
2023-04-18T11:23:56.500Z,96173.59
2023-04-18T11:25:07.153Z,96174.53
2023-04-18T11:26:08.775Z,96182.03
2023-04-18T11:27:11.477Z,96182.66
2023-04-18T11:28:13.634Z,96173.03
2023-04-18T11:29:17.960Z,96176.41
2023-04-18T11:30:19.603Z,96172.03
2023-04-18T11:31:24.148Z,96179.34
2023-04-18T11:32:25.940Z,96181.97
2023-04-18T11:33:28.725Z,96180.41
2023-04-18T11:34:31.531Z,96184.00
2023-04-18T11:35:40.008Z,96176.06
2023-04-18T11:36:41.541Z,96182.19
2023-04-18T11:37:45.596Z,96179.69
2023-04-18T11:38:47.261Z,96175.34
2023-04-18T11:39:49.015Z,96188.34
2023-04-18T11:40:51.010Z,96172.59
2023-04-18T11:41:53.164Z,96181.38
2023-04-18T11:42:55.356Z,96171.28
2023-04-18T11:43:57.048Z,96173.88
2023-04-18T11:44:58.735Z,96190.56
2023-04-18T11:46:00.535Z,96173.38
2023-04-18T11:47:02.210Z,96175.41
2023-04-18T11:48:04.001Z,96181.72
2023-04-18T11:49:06.121Z,96179.03
2023-04-18T11:50:09.927Z,96178.00
2023-04-18T11:51:38.671Z,96187.13
2023-04-18T11:52:42.478Z,96182.34
2023-04-18T11:53:44.236Z,96178.81
2023-04-18T11:54:46.066Z,96186.22
2023-04-18T11:55:55.680Z,96184.19
2023-04-18T11:56:57.758Z,96190.09
2023-04-18T11:58:01.466Z,96192.59
2023-04-18T11:59:09.587Z,96199.00
2023-04-18T12:00:12.526Z,96191.63
2023-04-18T12:01:22.157Z,96188.50
2023-04-18T12:02:26.908Z,96182.91
2023-04-18T12:03:29.744Z,96185.47
2023-04-18T12:04:52.036Z,96183.94
2023-04-18T12:06:01.387Z,96194.75
2023-04-18T12:07:03.699Z,96189.84
2023-04-18T12:08:09.129Z,96185.66
2023-04-18T12:09:14.416Z,96189.44
2023-04-18T12:10:22.063Z,96188.41
2023-04-18T12:11:23.676Z,96194.09
2023-04-18T12:12:25.559Z,96191.88
2023-04-18T12:13:32.479Z,96193.50
2023-04-18T12:14:35.780Z,96199.28
2023-04-18T12:15:40.205Z,96197.38
2023-04-18T12:16:41.923Z,96193.03
2023-04-18T12:17:44.599Z,96192.06
2023-04-18T12:18:49.344Z,96197.50
2023-04-18T12:19:53.571Z,96188.28
2023-04-18T12:20:55.224Z,96197.31
2023-04-18T12:22:01.368Z,96203.59
2023-04-18T12:23:03.670Z,96200.69
2023-04-18T12:24:18.257Z,96198.91
2023-04-18T12:25:26.925Z,96202.16
2023-04-18T12:26:29.185Z,96207.69
2023-04-18T12:27:52.389Z,96200.44
2023-04-18T12:28:54.211Z,96189.38
2023-04-18T12:29:55.855Z,96199.31
2023-04-18T12:30:57.643Z,96195.25
2023-04-18T12:31:59.384Z,96198.97